sensor_id;sensor_type;location;lat;lon;timestamp;P1;durP1;ratioP1;P2;durP2;ratioP2
11386;SDS011;5748;53.102;8.456;2023-02-15T00:00:25;7.60;;;6.77;;
11386;SDS011;5748;53.102;8.456;2023-02-15T00:02:52;8.53;;;7.30;;
11386;SDS011;5748;53.102;8.456;2023-02-15T00:05:21;11.37;;;8.00;;
11386;SDS011;5748;53.102;8.456;2023-02-15T00:07:48;9.50;;;7.83;;
11386;SDS011;5748;53.102;8.456;2023-02-15T00:10:15;9.60;;;7.93;;
11386;SDS011;5748;53.102;8.456;2023-02-15T00:12:42;11.17;;;8.17;;
11386;SDS011;5748;53.102;8.456;2023-02-15T00:15:24;13.00;;;9.70;;
11386;SDS011;5748;53.102;8.456;2023-02-15T00:17:52;14.93;;;10.13;;
11386;SDS011;5748;53.102;8.456;2023-02-15T00:20:19;13.03;;;9.30;;
11386;SDS011;5748;53.102;8.456;2023-02-15T00:22:50;10.53;;;8.63;;
11386;SDS011;5748;53.102;8.456;2023-02-15T00:25:17;11.97;;;9.17;;
11386;SDS011;5748;53.102;8.456;2023-02-15T00:27:43;10.73;;;8.70;;
11386;SDS011;5748;53.102;8.456;2023-02-15T00:30:11;11.33;;;8.90;;
11386;SDS011;5748;53.102;8.456;2023-02-15T00:32:40;12.40;;;8.90;;
11386;SDS011;5748;53.102;8.456;2023-02-15T00:35:07;12.60;;;9.27;;
11386;SDS011;5748;53.102;8.456;2023-02-15T00:37:34;10.73;;;8.53;;
11386;SDS011;5748;53.102;8.456;2023-02-15T00:40:02;10.30;;;8.10;;
11386;SDS011;5748;53.102;8.456;2023-02-15T00:42:29;11.17;;;8.33;;
11386;SDS011;5748;53.102;8.456;2023-02-15T00:44:56;9.03;;;7.40;;
11386;SDS011;5748;53.102;8.456;2023-02-15T00:47:24;9.17;;;7.17;;
11386;SDS011;5748;53.102;8.456;2023-02-15T00:52:35;9.33;;;6.80;;
11386;SDS011;5748;53.102;8.456;2023-02-15T00:55:03;9.47;;;7.40;;
11386;SDS011;5748;53.102;8.456;2023-02-15T00:57:30;8.23;;;6.57;;
11386;SDS011;5748;53.102;8.456;2023-02-15T00:59:59;7.57;;;6.33;;
11386;SDS011;5748;53.102;8.456;2023-02-15T01:02:26;7.70;;;6.27;;
11386;SDS011;5748;53.102;8.456;2023-02-15T01:04:53;13.23;;;6.17;;
11386;SDS011;5748;53.102;8.456;2023-02-15T01:07:21;9.87;;;5.53;;
11386;SDS011;5748;53.102;8.456;2023-02-15T01:09:48;6.83;;;5.33;;
11386;SDS011;5748;53.102;8.456;2023-02-15T01:12:15;6.10;;;5.30;;
11386;SDS011;5748;53.102;8.456;2023-02-15T01:14:42;5.03;;;4.53;;
11386;SDS011;5748;53.102;8.456;2023-02-15T01:17:10;5.63;;;4.47;;
11386;SDS011;5748;53.102;8.456;2023-02-15T01:19:38;4.60;;;4.10;;
11386;SDS011;5748;53.102;8.456;2023-02-15T01:22:05;4.97;;;4.20;;
11386;SDS011;5748;53.102;8.456;2023-02-15T01:24:33;4.87;;;4.17;;
11386;SDS011;5748;53.102;8.456;2023-02-15T01:27:00;5.17;;;4.53;;
11386;SDS011;5748;53.102;8.456;2023-02-15T01:29:27;5.30;;;4.67;;
11386;SDS011;5748;53.102;8.456;2023-02-15T01:31:54;6.37;;;4.80;;
11386;SDS011;5748;53.102;8.456;2023-02-15T01:34:21;5.10;;;4.40;;
11386;SDS011;5748;53.102;8.456;2023-02-15T01:36:48;5.23;;;4.47;;
11386;SDS011;5748;53.102;8.456;2023-02-15T01:39:15;4.93;;;4.20;;
11386;SDS011;5748;53.102;8.456;2023-02-15T01:41:43;6.13;;;4.47;;
11386;SDS011;5748;53.102;8.456;2023-02-15T01:47:22;5.10;;;4.53;;
11386;SDS011;5748;53.102;8.456;2023-02-15T01:49:56;4.97;;;4.40;;
11386;SDS011;5748;53.102;8.456;2023-02-15T01:52:29;4.30;;;3.83;;
11386;SDS011;5748;53.102;8.456;2023-02-15T01:54:56;4.37;;;3.97;;
11386;SDS011;5748;53.102;8.456;2023-02-15T01:57:25;4.90;;;4.10;;
11386;SDS011;5748;53.102;8.456;2023-02-15T01:59:55;4.67;;;3.87;;
11386;SDS011;5748;53.102;8.456;2023-02-15T02:02:25;4.00;;;3.53;;
11386;SDS011;5748;53.102;8.456;2023-02-15T02:04:54;4.20;;;3.80;;
11386;SDS011;5748;53.102;8.456;2023-02-15T02:07:28;4.27;;;3.87;;
11386;SDS011;5748;53.102;8.456;2023-02-15T02:10:02;5.20;;;4.23;;
11386;SDS011;5748;53.102;8.456;2023-02-15T02:12:32;4.83;;;4.33;;
11386;SDS011;5748;53.102;8.456;2023-02-15T02:15:02;4.23;;;3.77;;
11386;SDS011;5748;53.102;8.456;2023-02-15T02:17:31;4.37;;;3.93;;
11386;SDS011;5748;53.102;8.456;2023-02-15T02:20:28;4.20;;;3.60;;
11386;SDS011;5748;53.102;8.456;2023-02-15T02:23:43;4.30;;;3.87;;
11386;SDS011;5748;53.102;8.456;2023-02-15T02:32:58;4.27;;;3.77;;
11386;SDS011;5748;53.102;8.456;2023-02-15T02:35:56;4.00;;;3.50;;
11386;SDS011;5748;53.102;8.456;2023-02-15T02:38:42;3.93;;;3.53;;
11386;SDS011;5748;53.102;8.456;2023-02-15T02:41:21;5.00;;;4.17;;
11386;SDS011;5748;53.102;8.456;2023-02-15T02:43:57;4.03;;;3.63;;
11386;SDS011;5748;53.102;8.456;2023-02-15T02:46:33;4.83;;;4.13;;
11386;SDS011;5748;53.102;8.456;2023-02-15T02:49:15;4.30;;;3.90;;
11386;SDS011;5748;53.102;8.456;2023-02-15T02:51:42;5.77;;;4.33;;
11386;SDS011;5748;53.102;8.456;2023-02-15T02:54:09;4.90;;;4.10;;
11386;SDS011;5748;53.102;8.456;2023-02-15T02:56:37;5.27;;;4.33;;
11386;SDS011;5748;53.102;8.456;2023-02-15T02:59:09;4.90;;;4.10;;
11386;SDS011;5748;53.102;8.456;2023-02-15T03:01:43;4.83;;;4.23;;
11386;SDS011;5748;53.102;8.456;2023-02-15T03:04:17;4.80;;;4.13;;
11386;SDS011;5748;53.102;8.456;2023-02-15T03:06:50;5.47;;;4.50;;
11386;SDS011;5748;53.102;8.456;2023-02-15T03:09:21;5.07;;;4.30;;
11386;SDS011;5748;53.102;8.456;2023-02-15T03:12:06;4.60;;;4.10;;
11386;SDS011;5748;53.102;8.456;2023-02-15T03:14:35;4.40;;;4.00;;
11386;SDS011;5748;53.102;8.456;2023-02-15T03:17:04;5.20;;;4.00;;
11386;SDS011;5748;53.102;8.456;2023-02-15T03:19:33;4.83;;;4.13;;
11386;SDS011;5748;53.102;8.456;2023-02-15T03:22:04;4.77;;;4.13;;
11386;SDS011;5748;53.102;8.456;2023-02-15T03:24:37;4.90;;;4.20;;
11386;SDS011;5748;53.102;8.456;2023-02-15T03:27:10;5.07;;;4.37;;
11386;SDS011;5748;53.102;8.456;2023-02-15T03:29:42;4.73;;;3.97;;
11386;SDS011;5748;53.102;8.456;2023-02-15T03:32:21;5.13;;;4.17;;
11386;SDS011;5748;53.102;8.456;2023-02-15T03:34:51;4.53;;;3.90;;
11386;SDS011;5748;53.102;8.456;2023-02-15T03:37:18;4.40;;;3.93;;
11386;SDS011;5748;53.102;8.456;2023-02-15T03:39:55;4.90;;;4.13;;
11386;SDS011;5748;53.102;8.456;2023-02-15T03:42:48;4.23;;;3.67;;
11386;SDS011;5748;53.102;8.456;2023-02-15T03:48:19;4.73;;;4.17;;
11386;SDS011;5748;53.102;8.456;2023-02-15T03:50:53;4.53;;;4.03;;
11386;SDS011;5748;53.102;8.456;2023-02-15T03:53:43;4.80;;;4.20;;
11386;SDS011;5748;53.102;8.456;2023-02-15T03:56:13;4.40;;;3.93;;
11386;SDS011;5748;53.102;8.456;2023-02-15T03:58:40;5.00;;;4.50;;
11386;SDS011;5748;53.102;8.456;2023-02-15T04:01:26;4.63;;;3.77;;
11386;SDS011;5748;53.102;8.456;2023-02-15T04:04:36;4.27;;;3.80;;
11386;SDS011;5748;53.102;8.456;2023-02-15T04:07:05;4.30;;;3.90;;
11386;SDS011;5748;53.102;8.456;2023-02-15T04:09:37;4.70;;;3.87;;
11386;SDS011;5748;53.102;8.456;2023-02-15T04:12:22;4.50;;;3.70;;
11386;SDS011;5748;53.102;8.456;2023-02-15T04:14:49;4.67;;;4.10;;
11386;SDS011;5748;53.102;8.456;2023-02-15T04:17:35;4.83;;;4.00;;
11386;SDS011;5748;53.102;8.456;2023-02-15T04:20:05;4.90;;;3.87;;
11386;SDS011;5748;53.102;8.456;2023-02-15T04:22:51;4.63;;;3.83;;
11386;SDS011;5748;53.102;8.456;2023-02-15T04:25:35;4.93;;;3.70;;
11386;SDS011;5748;53.102;8.456;2023-02-15T04:28:03;4.37;;;3.97;;
11386;SDS011;5748;53.102;8.456;2023-02-15T04:30:30;5.00;;;4.27;;
11386;SDS011;5748;53.102;8.456;2023-02-15T04:32:57;4.63;;;3.93;;
11386;SDS011;5748;53.102;8.456;2023-02-15T04:35:25;4.70;;;3.70;;
11386;SDS011;5748;53.102;8.456;2023-02-15T04:37:52;5.70;;;4.60;;
11386;SDS011;5748;53.102;8.456;2023-02-15T04:40:20;5.33;;;4.50;;
11386;SDS011;5748;53.102;8.456;2023-02-15T04:42:47;4.60;;;3.90;;
11386;SDS011;5748;53.102;8.456;2023-02-15T04:45:15;4.87;;;3.87;;
11386;SDS011;5748;53.102;8.456;2023-02-15T04:47:42;5.27;;;4.57;;
11386;SDS011;5748;53.102;8.456;2023-02-15T04:50:10;4.67;;;4.17;;
11386;SDS011;5748;53.102;8.456;2023-02-15T04:52:39;4.77;;;4.10;;
11386;SDS011;5748;53.102;8.456;2023-02-15T04:55:06;4.83;;;4.30;;
11386;SDS011;5748;53.102;8.456;2023-02-15T04:57:40;4.87;;;4.03;;
11386;SDS011;5748;53.102;8.456;2023-02-15T05:00:07;4.53;;;4.00;;
11386;SDS011;5748;53.102;8.456;2023-02-15T05:02:36;4.53;;;4.10;;
11386;SDS011;5748;53.102;8.456;2023-02-15T05:05:03;4.70;;;4.07;;
11386;SDS011;5748;53.102;8.456;2023-02-15T05:07:33;4.20;;;3.80;;
11386;SDS011;5748;53.102;8.456;2023-02-15T05:10:01;3.80;;;3.40;;
11386;SDS011;5748;53.102;8.456;2023-02-15T05:12:28;4.20;;;3.57;;
11386;SDS011;5748;53.102;8.456;2023-02-15T05:14:56;5.00;;;3.73;;
11386;SDS011;5748;53.102;8.456;2023-02-15T05:17:23;4.10;;;3.70;;
11386;SDS011;5748;53.102;8.456;2023-02-15T05:19:50;4.20;;;3.40;;
11386;SDS011;5748;53.102;8.456;2023-02-15T05:22:17;3.93;;;3.30;;
11386;SDS011;5748;53.102;8.456;2023-02-15T05:24:44;4.17;;;3.70;;
11386;SDS011;5748;53.102;8.456;2023-02-15T05:27:31;4.37;;;3.63;;
11386;SDS011;5748;53.102;8.456;2023-02-15T05:30:15;3.70;;;3.37;;
11386;SDS011;5748;53.102;8.456;2023-02-15T05:35:15;4.00;;;3.57;;
11386;SDS011;5748;53.102;8.456;2023-02-15T05:37:43;3.80;;;3.40;;
11386;SDS011;5748;53.102;8.456;2023-02-15T05:40:10;4.53;;;3.97;;
11386;SDS011;5748;53.102;8.456;2023-02-15T05:42:39;3.80;;;3.40;;
11386;SDS011;5748;53.102;8.456;2023-02-15T05:45:06;4.07;;;3.67;;
11386;SDS011;5748;53.102;8.456;2023-02-15T05:50:24;3.87;;;3.33;;
11386;SDS011;5748;53.102;8.456;2023-02-15T05:52:51;4.13;;;3.47;;
11386;SDS011;5748;53.102;8.456;2023-02-15T05:55:18;3.80;;;3.30;;
11386;SDS011;5748;53.102;8.456;2023-02-15T05:57:47;4.53;;;3.63;;
11386;SDS011;5748;53.102;8.456;2023-02-15T06:00:15;4.33;;;3.77;;
11386;SDS011;5748;53.102;8.456;2023-02-15T06:02:43;4.20;;;3.60;;
11386;SDS011;5748;53.102;8.456;2023-02-15T06:05:10;4.87;;;4.00;;
11386;SDS011;5748;53.102;8.456;2023-02-15T06:07:37;4.67;;;3.57;;
11386;SDS011;5748;53.102;8.456;2023-02-15T06:10:05;4.23;;;3.67;;
11386;SDS011;5748;53.102;8.456;2023-02-15T06:12:48;4.00;;;3.50;;
11386;SDS011;5748;53.102;8.456;2023-02-15T06:15:20;3.90;;;3.50;;
11386;SDS011;5748;53.102;8.456;2023-02-15T06:18:00;3.67;;;3.33;;
11386;SDS011;5748;53.102;8.456;2023-02-15T06:20:27;4.00;;;3.60;;
11386;SDS011;5748;53.102;8.456;2023-02-15T06:22:54;4.07;;;3.37;;
11386;SDS011;5748;53.102;8.456;2023-02-15T06:25:24;3.90;;;3.50;;
11386;SDS011;5748;53.102;8.456;2023-02-15T06:27:52;3.87;;;3.40;;
11386;SDS011;5748;53.102;8.456;2023-02-15T06:30:19;4.10;;;3.70;;
11386;SDS011;5748;53.102;8.456;2023-02-15T06:32:54;3.80;;;3.40;;
11386;SDS011;5748;53.102;8.456;2023-02-15T06:35:23;4.33;;;3.93;;
11386;SDS011;5748;53.102;8.456;2023-02-15T06:37:57;3.90;;;3.50;;
11386;SDS011;5748;53.102;8.456;2023-02-15T06:40:24;4.00;;;3.60;;
11386;SDS011;5748;53.102;8.456;2023-02-15T06:42:54;4.20;;;3.80;;
11386;SDS011;5748;53.102;8.456;2023-02-15T06:48:17;4.27;;;3.87;;
11386;SDS011;5748;53.102;8.456;2023-02-15T06:50:53;4.40;;;4.00;;
11386;SDS011;5748;53.102;8.456;2023-02-15T06:53:20;5.77;;;4.30;;
11386;SDS011;5748;53.102;8.456;2023-02-15T06:55:47;4.90;;;4.40;;
11386;SDS011;5748;53.102;8.456;2023-02-15T06:58:16;4.67;;;4.20;;
11386;SDS011;5748;53.102;8.456;2023-02-15T07:00:43;4.73;;;4.20;;
11386;SDS011;5748;53.102;8.456;2023-02-15T07:03:12;4.87;;;4.17;;
11386;SDS011;5748;53.102;8.456;2023-02-15T07:05:40;4.47;;;4.03;;
11386;SDS011;5748;53.102;8.456;2023-02-15T07:08:08;5.03;;;4.40;;
11386;SDS011;5748;53.102;8.456;2023-02-15T07:10:49;4.57;;;4.00;;
11386;SDS011;5748;53.102;8.456;2023-02-15T07:13:36;4.50;;;4.10;;
11386;SDS011;5748;53.102;8.456;2023-02-15T07:16:02;4.43;;;4.00;;
11386;SDS011;5748;53.102;8.456;2023-02-15T07:18:30;4.77;;;4.17;;
11386;SDS011;5748;53.102;8.456;2023-02-15T07:20:57;5.47;;;4.40;;
11386;SDS011;5748;53.102;8.456;2023-02-15T07:23:24;5.13;;;4.37;;
11386;SDS011;5748;53.102;8.456;2023-02-15T07:25:56;5.57;;;4.57;;
11386;SDS011;5748;53.102;8.456;2023-02-15T07:28:23;4.30;;;3.90;;
11386;SDS011;5748;53.102;8.456;2023-02-15T07:30:52;4.47;;;4.07;;
11386;SDS011;5748;53.102;8.456;2023-02-15T07:33:20;4.90;;;4.27;;
11386;SDS011;5748;53.102;8.456;2023-02-15T07:35:52;4.63;;;4.23;;
11386;SDS011;5748;53.102;8.456;2023-02-15T07:38:22;4.47;;;4.07;;
11386;SDS011;5748;53.102;8.456;2023-02-15T07:40:49;4.33;;;3.93;;
11386;SDS011;5748;53.102;8.456;2023-02-15T07:43:18;4.90;;;4.27;;
11386;SDS011;5748;53.102;8.456;2023-02-15T07:45:45;6.83;;;4.30;;
11386;SDS011;5748;53.102;8.456;2023-02-15T07:48:14;4.60;;;4.03;;
11386;SDS011;5748;53.102;8.456;2023-02-15T07:50:41;4.60;;;4.20;;
11386;SDS011;5748;53.102;8.456;2023-02-15T07:53:08;4.27;;;3.87;;
11386;SDS011;5748;53.102;8.456;2023-02-15T07:55:35;4.53;;;3.93;;
11386;SDS011;5748;53.102;8.456;2023-02-15T07:58:02;4.43;;;4.03;;
11386;SDS011;5748;53.102;8.456;2023-02-15T08:00:29;4.47;;;4.07;;
11386;SDS011;5748;53.102;8.456;2023-02-15T08:03:17;4.83;;;4.30;;
11386;SDS011;5748;53.102;8.456;2023-02-15T08:05:44;4.67;;;4.17;;
11386;SDS011;5748;53.102;8.456;2023-02-15T08:08:25;4.63;;;4.13;;
11386;SDS011;5748;53.102;8.456;2023-02-15T08:10:59;5.27;;;4.73;;
11386;SDS011;5748;53.102;8.456;2023-02-15T08:13:45;4.90;;;4.07;;
11386;SDS011;5748;53.102;8.456;2023-02-15T08:16:21;4.67;;;4.27;;
11386;SDS011;5748;53.102;8.456;2023-02-15T08:18:51;4.70;;;4.30;;
11386;SDS011;5748;53.102;8.456;2023-02-15T08:29:24;5.57;;;4.87;;
11386;SDS011;5748;53.102;8.456;2023-02-15T08:37:37;5.03;;;4.53;;
11386;SDS011;5748;53.102;8.456;2023-02-15T08:40:04;5.10;;;4.60;;
11386;SDS011;5748;53.102;8.456;2023-02-15T08:42:34;5.00;;;4.50;;
11386;SDS011;5748;53.102;8.456;2023-02-15T08:48:00;5.27;;;4.77;;
11386;SDS011;5748;53.102;8.456;2023-02-15T08:50:29;5.43;;;4.90;;
11386;SDS011;5748;53.102;8.456;2023-02-15T08:52:56;5.47;;;4.93;;
11386;SDS011;5748;53.102;8.456;2023-02-15T08:55:24;6.00;;;4.87;;
11386;SDS011;5748;53.102;8.456;2023-02-15T08:57:51;5.20;;;4.70;;
11386;SDS011;5748;53.102;8.456;2023-02-15T09:00:21;5.40;;;4.83;;
11386;SDS011;5748;53.102;8.456;2023-02-15T09:02:48;5.37;;;4.80;;
11386;SDS011;5748;53.102;8.456;2023-02-15T09:05:16;5.43;;;4.73;;
11386;SDS011;5748;53.102;8.456;2023-02-15T09:07:44;5.70;;;4.57;;
11386;SDS011;5748;53.102;8.456;2023-02-15T09:10:11;5.30;;;4.80;;
11386;SDS011;5748;53.102;8.456;2023-02-15T09:12:38;5.43;;;4.83;;
11386;SDS011;5748;53.102;8.456;2023-02-15T09:15:05;6.40;;;4.80;;
11386;SDS011;5748;53.102;8.456;2023-02-15T09:17:33;6.37;;;5.43;;
11386;SDS011;5748;53.102;8.456;2023-02-15T09:20:02;5.80;;;5.20;;
11386;SDS011;5748;53.102;8.456;2023-02-15T09:22:31;7.00;;;6.30;;
11386;SDS011;5748;53.102;8.456;2023-02-15T09:25:08;7.23;;;6.37;;
11386;SDS011;5748;53.102;8.456;2023-02-15T09:27:35;7.47;;;6.60;;
11386;SDS011;5748;53.102;8.456;2023-02-15T09:30:03;7.10;;;6.40;;
11386;SDS011;5748;53.102;8.456;2023-02-15T09:32:32;7.00;;;6.30;;
11386;SDS011;5748;53.102;8.456;2023-02-15T09:34:59;7.93;;;7.10;;
11386;SDS011;5748;53.102;8.456;2023-02-15T09:37:26;7.33;;;6.60;;
11386;SDS011;5748;53.102;8.456;2023-02-15T09:39:53;7.70;;;6.90;;
11386;SDS011;5748;53.102;8.456;2023-02-15T09:42:25;7.80;;;7.00;;
11386;SDS011;5748;53.102;8.456;2023-02-15T09:45:30;7.80;;;6.97;;
11386;SDS011;5748;53.102;8.456;2023-02-15T09:48:16;8.37;;;7.13;;
11386;SDS011;5748;53.102;8.456;2023-02-15T09:51:05;8.00;;;7.20;;
11386;SDS011;5748;53.102;8.456;2023-02-15T09:53:52;8.20;;;7.40;;
11386;SDS011;5748;53.102;8.456;2023-02-15T09:56:37;8.93;;;7.30;;
11386;SDS011;5748;53.102;8.456;2023-02-15T09:59:21;8.60;;;7.70;;
11386;SDS011;5748;53.102;8.456;2023-02-15T10:02:01;8.33;;;7.53;;
11386;SDS011;5748;53.102;8.456;2023-02-15T10:04:47;9.60;;;8.47;;
11386;SDS011;5748;53.102;8.456;2023-02-15T10:07:31;8.57;;;7.43;;
11386;SDS011;5748;53.102;8.456;2023-02-15T10:10:17;9.50;;;8.50;;
11386;SDS011;5748;53.102;8.456;2023-02-15T10:12:57;9.03;;;7.80;;
11386;SDS011;5748;53.102;8.456;2023-02-15T10:15:43;9.60;;;8.60;;
11386;SDS011;5748;53.102;8.456;2023-02-15T10:18:24;9.87;;;8.87;;
11386;SDS011;5748;53.102;8.456;2023-02-15T10:21:18;9.57;;;8.57;;
11386;SDS011;5748;53.102;8.456;2023-02-15T10:24:06;10.43;;;9.00;;
11386;SDS011;5748;53.102;8.456;2023-02-15T10:26:50;10.93;;;8.67;;
11386;SDS011;5748;53.102;8.456;2023-02-15T10:29:24;9.73;;;8.73;;
11386;SDS011;5748;53.102;8.456;2023-02-15T10:32:13;9.30;;;8.37;;
11386;SDS011;5748;53.102;8.456;2023-02-15T10:34:50;9.63;;;8.53;;
11386;SDS011;5748;53.102;8.456;2023-02-15T10:37:24;9.57;;;8.57;;
11386;SDS011;5748;53.102;8.456;2023-02-15T10:40:18;9.87;;;8.83;;
11386;SDS011;5748;53.102;8.456;2023-02-15T10:43:01;9.40;;;8.50;;
11386;SDS011;5748;53.102;8.456;2023-02-15T10:45:49;9.60;;;8.60;;
11386;SDS011;5748;53.102;8.456;2023-02-15T10:48:37;9.30;;;8.37;;
11386;SDS011;5748;53.102;8.456;2023-02-15T10:51:29;9.40;;;8.50;;
11386;SDS011;5748;53.102;8.456;2023-02-15T10:54:09;9.33;;;8.40;;
11386;SDS011;5748;53.102;8.456;2023-02-15T10:56:50;9.47;;;8.57;;
11386;SDS011;5748;53.102;8.456;2023-02-15T11:02:32;10.13;;;9.13;;
11386;SDS011;5748;53.102;8.456;2023-02-15T11:05:23;9.47;;;8.57;;
11386;SDS011;5748;53.102;8.456;2023-02-15T11:08:02;9.67;;;8.67;;
11386;SDS011;5748;53.102;8.456;2023-02-15T11:10:35;9.30;;;8.33;;
11386;SDS011;5748;53.102;8.456;2023-02-15T11:13:08;10.33;;;9.23;;
11386;SDS011;5748;53.102;8.456;2023-02-15T11:15:40;10.30;;;9.27;;
11386;SDS011;5748;53.102;8.456;2023-02-15T11:18:12;10.17;;;9.17;;
11386;SDS011;5748;53.102;8.456;2023-02-15T11:21:08;10.27;;;9.27;;
11386;SDS011;5748;53.102;8.456;2023-02-15T11:23:40;11.03;;;9.93;;
11386;SDS011;5748;53.102;8.456;2023-02-15T11:26:12;10.97;;;9.87;;
11386;SDS011;5748;53.102;8.456;2023-02-15T11:28:45;10.87;;;9.77;;
11386;SDS011;5748;53.102;8.456;2023-02-15T11:31:19;11.87;;;9.70;;
11386;SDS011;5748;53.102;8.456;2023-02-15T11:33:49;11.60;;;10.33;;
11386;SDS011;5748;53.102;8.456;2023-02-15T11:36:24;12.30;;;11.10;;
11386;SDS011;5748;53.102;8.456;2023-02-15T11:38:56;14.27;;;12.80;;
11386;SDS011;5748;53.102;8.456;2023-02-15T11:41:38;13.27;;;11.87;;
11386;SDS011;5748;53.102;8.456;2023-02-15T11:44:11;12.57;;;11.37;;
11386;SDS011;5748;53.102;8.456;2023-02-15T11:46:44;11.77;;;10.60;;
11386;SDS011;5748;53.102;8.456;2023-02-15T11:49:15;13.37;;;11.97;;
11386;SDS011;5748;53.102;8.456;2023-02-15T11:51:51;12.83;;;11.53;;
11386;SDS011;5748;53.102;8.456;2023-02-15T11:54:28;11.60;;;10.50;;
11386;SDS011;5748;53.102;8.456;2023-02-15T11:57:04;11.47;;;10.17;;
11386;SDS011;5748;53.102;8.456;2023-02-15T11:59:45;12.10;;;10.87;;
11386;SDS011;5748;53.102;8.456;2023-02-15T12:02:17;13.07;;;11.77;;
11386;SDS011;5748;53.102;8.456;2023-02-15T12:04:47;15.43;;;13.93;;
11386;SDS011;5748;53.102;8.456;2023-02-15T12:07:22;16.33;;;14.60;;
11386;SDS011;5748;53.102;8.456;2023-02-15T12:09:52;14.40;;;12.90;;
11386;SDS011;5748;53.102;8.456;2023-02-15T12:12:30;16.23;;;14.37;;
11386;SDS011;5748;53.102;8.456;2023-02-15T12:14:59;14.27;;;12.87;;
11386;SDS011;5748;53.102;8.456;2023-02-15T12:22:59;14.40;;;13.00;;
11386;SDS011;5748;53.102;8.456;2023-02-15T12:25:39;13.70;;;12.17;;
11386;SDS011;5748;53.102;8.456;2023-02-15T12:28:23;13.00;;;11.60;;
11386;SDS011;5748;53.102;8.456;2023-02-15T12:30:55;12.30;;;10.90;;
11386;SDS011;5748;53.102;8.456;2023-02-15T12:33:25;16.10;;;14.40;;
11386;SDS011;5748;53.102;8.456;2023-02-15T12:35:57;13.07;;;11.77;;
11386;SDS011;5748;53.102;8.456;2023-02-15T12:38:28;14.03;;;12.63;;
11386;SDS011;5748;53.102;8.456;2023-02-15T12:40:56;14.83;;;13.20;;
11386;SDS011;5748;53.102;8.456;2023-02-15T12:43:26;13.57;;;12.17;;
11386;SDS011;5748;53.102;8.456;2023-02-15T12:46:13;15.80;;;14.13;;
11386;SDS011;5748;53.102;8.456;2023-02-15T12:49:02;14.03;;;12.63;;
11386;SDS011;5748;53.102;8.456;2023-02-15T12:51:42;13.60;;;12.17;;
11386;SDS011;5748;53.102;8.456;2023-02-15T12:54:21;12.63;;;11.33;;
11386;SDS011;5748;53.102;8.456;2023-02-15T12:56:59;13.63;;;12.00;;
11386;SDS011;5748;53.102;8.456;2023-02-15T12:59:52;14.27;;;12.77;;
11386;SDS011;5748;53.102;8.456;2023-02-15T13:02:23;14.83;;;13.30;;
11386;SDS011;5748;53.102;8.456;2023-02-15T13:04:55;13.63;;;12.23;;
11386;SDS011;5748;53.102;8.456;2023-02-15T13:07:31;13.87;;;12.47;;
11386;SDS011;5748;53.102;8.456;2023-02-15T13:09:59;13.17;;;11.77;;
11386;SDS011;5748;53.102;8.456;2023-02-15T13:12:27;15.83;;;13.10;;
11386;SDS011;5748;53.102;8.456;2023-02-15T13:14:57;15.53;;;13.77;;
11386;SDS011;5748;53.102;8.456;2023-02-15T13:17:28;15.27;;;13.67;;
11386;SDS011;5748;53.102;8.456;2023-02-15T13:20:00;14.00;;;12.00;;
11386;SDS011;5748;53.102;8.456;2023-02-15T13:22:35;13.90;;;12.40;;
11386;SDS011;5748;53.102;8.456;2023-02-15T13:25:11;11.63;;;10.43;;
11386;SDS011;5748;53.102;8.456;2023-02-15T13:27:44;13.30;;;11.90;;
11386;SDS011;5748;53.102;8.456;2023-02-15T13:30:19;12.97;;;11.50;;
11386;SDS011;5748;53.102;8.456;2023-02-15T13:32:59;13.40;;;11.63;;
11386;SDS011;5748;53.102;8.456;2023-02-15T13:35:33;13.23;;;11.33;;
11386;SDS011;5748;53.102;8.456;2023-02-15T13:38:10;13.47;;;12.03;;
11386;SDS011;5748;53.102;8.456;2023-02-15T13:41:00;11.90;;;10.53;;
11386;SDS011;5748;53.102;8.456;2023-02-15T13:43:35;11.87;;;10.67;;
11386;SDS011;5748;53.102;8.456;2023-02-15T13:46:17;12.13;;;10.20;;
11386;SDS011;5748;53.102;8.456;2023-02-15T13:49:01;12.33;;;11.03;;
11386;SDS011;5748;53.102;8.456;2023-02-15T13:51:41;10.60;;;9.50;;
11386;SDS011;5748;53.102;8.456;2023-02-15T13:54:28;13.03;;;11.53;;
11386;SDS011;5748;53.102;8.456;2023-02-15T13:57:16;14.93;;;12.30;;
11386;SDS011;5748;53.102;8.456;2023-02-15T14:00:01;12.20;;;11.00;;
11386;SDS011;5748;53.102;8.456;2023-02-15T14:03:00;11.63;;;10.27;;
11386;SDS011;5748;53.102;8.456;2023-02-15T14:06:19;10.93;;;9.80;;
11386;SDS011;5748;53.102;8.456;2023-02-15T14:09:03;9.33;;;8.43;;
11386;SDS011;5748;53.102;8.456;2023-02-15T14:11:44;9.40;;;8.40;;
11386;SDS011;5748;53.102;8.456;2023-02-15T14:14:32;8.13;;;7.13;;
11386;SDS011;5748;53.102;8.456;2023-02-15T14:17:20;10.07;;;9.07;;
11386;SDS011;5748;53.102;8.456;2023-02-15T14:19:56;10.27;;;8.90;;
11386;SDS011;5748;53.102;8.456;2023-02-15T14:22:29;9.43;;;8.43;;
11386;SDS011;5748;53.102;8.456;2023-02-15T14:25:16;11.70;;;10.40;;
11386;SDS011;5748;53.102;8.456;2023-02-15T14:27:54;13.03;;;9.90;;
11386;SDS011;5748;53.102;8.456;2023-02-15T14:30:33;9.53;;;8.53;;
11386;SDS011;5748;53.102;8.456;2023-02-15T14:33:05;9.57;;;8.40;;
11386;SDS011;5748;53.102;8.456;2023-02-15T14:35:54;9.80;;;8.13;;
11386;SDS011;5748;53.102;8.456;2023-02-15T14:38:25;9.90;;;8.90;;
11386;SDS011;5748;53.102;8.456;2023-02-15T14:41:09;8.67;;;7.67;;
11386;SDS011;5748;53.102;8.456;2023-02-15T14:43:45;8.97;;;7.60;;
11386;SDS011;5748;53.102;8.456;2023-02-15T14:46:29;8.47;;;7.53;;
11386;SDS011;5748;53.102;8.456;2023-02-15T14:49:03;8.50;;;7.40;;
11386;SDS011;5748;53.102;8.456;2023-02-15T14:57:24;8.40;;;7.43;;
11386;SDS011;5748;53.102;8.456;2023-02-15T14:59:59;8.07;;;7.27;;
11386;SDS011;5748;53.102;8.456;2023-02-15T15:05:20;7.57;;;6.77;;
11386;SDS011;5748;53.102;8.456;2023-02-15T15:07:53;8.13;;;6.93;;
11386;SDS011;5748;53.102;8.456;2023-02-15T15:16:29;8.23;;;7.40;;
11386;SDS011;5748;53.102;8.456;2023-02-15T15:22:27;8.30;;;7.20;;
11386;SDS011;5748;53.102;8.456;2023-02-15T15:24:57;7.60;;;6.80;;
11386;SDS011;5748;53.102;8.456;2023-02-15T15:33:26;8.13;;;7.10;;
11386;SDS011;5748;53.102;8.456;2023-02-15T15:43:19;7.37;;;6.50;;
11386;SDS011;5748;53.102;8.456;2023-02-15T15:46:49;8.27;;;6.43;;
11386;SDS011;5748;53.102;8.456;2023-02-15T15:49:36;7.03;;;6.33;;
11386;SDS011;5748;53.102;8.456;2023-02-15T15:52:08;6.77;;;6.07;;
11386;SDS011;5748;53.102;8.456;2023-02-15T15:54:43;6.87;;;6.17;;
11386;SDS011;5748;53.102;8.456;2023-02-15T15:57:22;7.60;;;6.33;;
11386;SDS011;5748;53.102;8.456;2023-02-15T15:59:56;7.30;;;6.57;;
11386;SDS011;5748;53.102;8.456;2023-02-15T16:02:25;10.30;;;7.17;;
11386;SDS011;5748;53.102;8.456;2023-02-15T16:04:53;8.30;;;7.03;;
11386;SDS011;5748;53.102;8.456;2023-02-15T16:07:25;7.77;;;6.97;;
11386;SDS011;5748;53.102;8.456;2023-02-15T16:09:57;7.67;;;6.87;;
11386;SDS011;5748;53.102;8.456;2023-02-15T16:12:27;9.97;;;8.43;;
11386;SDS011;5748;53.102;8.456;2023-02-15T16:14:57;8.97;;;8.03;;
11386;SDS011;5748;53.102;8.456;2023-02-15T16:17:28;8.47;;;7.57;;
11386;SDS011;5748;53.102;8.456;2023-02-15T16:20:04;10.13;;;8.90;;
11386;SDS011;5748;53.102;8.456;2023-02-15T16:22:57;12.77;;;11.57;;
11386;SDS011;5748;53.102;8.456;2023-02-15T16:25:48;9.50;;;8.50;;
11386;SDS011;5748;53.102;8.456;2023-02-15T16:28:27;10.57;;;9.47;;
11386;SDS011;5748;53.102;8.456;2023-02-15T16:31:04;10.47;;;8.53;;
11386;SDS011;5748;53.102;8.456;2023-02-15T16:33:36;9.70;;;7.97;;
11386;SDS011;5748;53.102;8.456;2023-02-15T16:36:05;7.97;;;7.13;;
11386;SDS011;5748;53.102;8.456;2023-02-15T16:39:07;7.97;;;6.93;;
11386;SDS011;5748;53.102;8.456;2023-02-15T16:41:39;7.23;;;6.53;;
11386;SDS011;5748;53.102;8.456;2023-02-15T16:44:17;6.90;;;6.20;;
11386;SDS011;5748;53.102;8.456;2023-02-15T16:46:46;7.00;;;6.27;;
11386;SDS011;5748;53.102;8.456;2023-02-15T16:49:19;7.60;;;6.10;;
11386;SDS011;5748;53.102;8.456;2023-02-15T16:51:57;7.43;;;6.10;;
11386;SDS011;5748;53.102;8.456;2023-02-15T16:54:29;7.47;;;6.50;;
11386;SDS011;5748;53.102;8.456;2023-02-15T16:56:59;8.07;;;6.97;;